Time;durP1;ratioP1;P1;durP2;ratioP2;P2;SDS_P1;SDS_P2;PMS_P1;PMS_P2;Temp;Humidity;BMP_temperature;BMP_pressure;BME280_temperature;BME280_humidity;BME280_pressure;Samples;Min_cycle;Max_cycle;Signal;HPM_P1;HPM_P2
2023/04/17 00:01:27;;;;;;;1.25;0.73;;;22.40;47.10;;;;;;5038492;28;20029;-67
2023/04/17 00:03:53;;;;;;;0.80;0.60;;;22.40;47.10;;;;;;5040288;28;20030;-67
2023/04/17 00:06:19;;;;;;;0.65;0.60;;;22.40;47.10;;;;;;5042119;28;20131;-66
2023/04/17 00:08:45;;;;;;;0.98;0.63;;;22.40;47.10;;;;;;5038782;28;20143;-66
2023/04/17 00:11:10;;;;;;;1.40;0.77;;;22.30;47.10;;;;;;5039055;28;20041;-67
2023/04/17 00:13:36;;;;;;;1.52;0.80;;;22.40;47.10;;;;;;5040046;28;20024;-67
2023/04/17 00:16:02;;;;;;;0.85;0.77;;;22.40;47.10;;;;;;5040062;28;20021;-66
2023/04/17 00:18:27;;;;;;;0.60;0.50;;;22.30;47.10;;;;;;5039593;28;20385;-66
2023/04/17 00:20:53;;;;;;;1.27;0.70;;;22.30;47.10;;;;;;5038882;28;20033;-67
2023/04/17 00:23:19;;;;;;;1.00;0.70;;;22.30;47.20;;;;;;5036842;28;20374;-67
2023/04/17 00:25:44;;;;;;;0.73;0.60;;;22.30;47.20;;;;;;5041076;28;20029;-67
2023/04/17 00:28:10;;;;;;;1.13;0.60;;;22.30;47.20;;;;;;5039658;28;20040;-67
2023/04/17 00:30:35;;;;;;;1.15;0.77;;;22.30;47.20;;;;;;5039541;28;20025;-68
2023/04/17 00:33:01;;;;;;;0.90;0.75;;;22.20;47.20;;;;;;5038730;28;20025;-67
2023/04/17 00:35:26;;;;;;;0.80;0.50;;;22.30;47.20;;;;;;5038106;28;20103;-67
2023/04/17 00:37:52;;;;;;;1.02;0.70;;;22.20;47.20;;;;;;5037862;28;20037;-67
2023/04/17 00:40:18;;;;;;;1.15;0.77;;;22.20;47.20;;;;;;5044136;28;20045;-68
2023/04/17 00:42:51;;;;;;;1.00;0.63;;;22.20;47.20;;;;;;5037593;28;20022;-67
2023/04/17 00:45:19;;;;;;;0.88;0.70;;;22.20;47.30;;;;;;5039124;28;20171;-67
2023/04/17 00:47:45;;;;;;;0.77;0.60;;;22.20;47.30;;;;;;5045581;28;20504;-67
2023/04/17 00:50:11;;;;;;;1.00;0.60;;;22.20;47.30;;;;;;5039734;28;20056;-67
2023/04/17 00:52:37;;;;;;;0.57;0.57;;;22.20;47.80;;;;;;5038940;28;20163;-67
2023/04/17 00:55:03;;;;;;;1.08;0.60;;;22.20;47.30;;;;;;5044291;28;20052;-68
2023/04/17 00:57:29;;;;;;;1.00;0.70;;;22.20;47.30;;;;;;5041517;28;20017;-66
2023/04/17 00:59:56;;;;;;;1.20;0.70;;;22.20;47.40;;;;;;5040104;28;20076;-67
2023/04/17 01:02:22;;;;;;;0.70;0.60;;;22.20;47.30;;;;;;5036401;28;20022;-68
2023/04/17 01:04:48;;;;;;;0.63;0.60;;;22.20;47.30;;;;;;5041552;28;20021;-67
2023/04/17 01:07:13;;;;;;;0.90;0.60;;;22.10;47.30;;;;;;5038641;28;20021;-67
2023/04/17 01:09:39;;;;;;;0.73;0.60;;;22.10;47.30;;;;;;5035422;28;20413;-66
2023/04/17 01:12:22;;;;;;;0.70;0.50;;;22.10;47.30;;;;;;5039705;28;20082;-67
2023/04/17 01:14:52;;;;;;;0.60;0.60;;;22.10;47.40;;;;;;5039408;28;20025;-67
2023/04/17 01:17:18;;;;;;;0.60;0.50;;;22.10;47.40;;;;;;5042325;28;20099;-68
2023/04/17 01:19:44;;;;;;;1.30;0.70;;;22.10;47.40;;;;;;5039704;28;20101;-68
2023/04/17 01:22:10;;;;;;;1.30;0.70;;;22.10;47.40;;;;;;5037777;28;20124;-67
2023/04/17 01:24:36;;;;;;;1.10;0.70;;;22.10;47.40;;;;;;5039542;28;20108;-68
2023/04/17 01:27:03;;;;;;;0.68;0.50;;;22.10;47.30;;;;;;5040454;28;20495;-67
2023/04/17 01:29:29;;;;;;;1.27;0.70;;;22.10;47.40;;;;;;5041608;28;20396;-67
2023/04/17 01:31:54;;;;;;;0.65;0.55;;;22.10;47.40;;;;;;5050154;28;20021;-68
2023/04/17 01:34:20;;;;;;;0.90;0.60;;;22.00;47.40;;;;;;5038671;28;20052;-67
2023/04/17 01:36:46;;;;;;;1.17;0.60;;;22.10;47.40;;;;;;5056606;28;20022;-66
2023/04/17 01:39:11;;;;;;;0.93;0.65;;;22.10;47.50;;;;;;5040658;28;20057;-67
2023/04/17 01:41:37;;;;;;;0.68;0.50;;;22.00;47.40;;;;;;5041214;28;20127;-67
2023/04/17 01:44:02;;;;;;;0.73;0.50;;;22.00;47.40;;;;;;5040601;28;20489;-67
2023/04/17 01:46:28;;;;;;;1.15;0.70;;;22.00;47.40;;;;;;5042826;28;20030;-66
2023/04/17 01:48:54;;;;;;;0.57;0.55;;;22.00;47.40;;;;;;5039413;28;20059;-67
2023/04/17 01:51:20;;;;;;;0.75;0.60;;;22.00;47.40;;;;;;5039330;28;20021;-68
2023/04/17 01:53:45;;;;;;;1.00;0.70;;;22.00;47.40;;;;;;5038233;28;20036;-66
2023/04/17 01:56:12;;;;;;;0.90;0.60;;;22.00;47.40;;;;;;5043573;28;20030;-67
2023/04/17 01:58:38;;;;;;;0.70;0.60;;;22.00;47.40;;;;;;5039093;28;20025;-68
2023/04/17 02:01:04;;;;;;;0.73;0.60;;;22.00;47.40;;;;;;5040238;28;20150;-66
2023/04/17 02:03:30;;;;;;;1.13;0.82;;;22.00;47.40;;;;;;5039632;28;20486;-67
2023/04/17 02:05:56;;;;;;;0.95;0.60;;;21.90;47.40;;;;;;5041740;28;20055;-68
2023/04/17 02:08:22;;;;;;;0.73;0.60;;;21.90;47.40;;;;;;5042201;28;20037;-66
2023/04/17 02:10:48;;;;;;;1.00;0.60;;;21.90;47.40;;;;;;5038522;28;20446;-67
2023/04/17 02:13:14;;;;;;;0.60;0.60;;;21.90;47.40;;;;;;5039206;28;20021;-67
2023/04/17 02:15:39;;;;;;;0.52;0.50;;;21.90;47.40;;;;;;5040961;28;20037;-67
2023/04/17 02:18:05;;;;;;;0.50;0.50;;;21.90;47.40;;;;;;5047756;28;20112;-67
2023/04/17 02:20:32;;;;;;;0.68;0.50;;;21.90;47.40;;;;;;5039721;28;20481;-67
2023/04/17 02:23:01;;;;;;;0.70;0.57;;;21.90;47.40;;;;;;5040944;28;20112;-66
2023/04/17 02:25:28;;;;;;;0.70;0.60;;;21.90;47.40;;;;;;5073113;28;20531;-67
2023/04/17 02:27:55;;;;;;;1.55;0.65;;;21.90;47.40;;;;;;5041143;28;20041;-67
2023/04/17 02:30:24;;;;;;;0.57;0.50;;;21.90;47.50;;;;;;5043673;28;20515;-67
2023/04/17 02:32:53;;;;;;;;;;;21.90;47.50;;;;;;5043120;28;20491;-67
2023/04/17 02:35:25;;;;;;;0.60;0.50;;;21.90;47.50;;;;;;5038980;28;19928;-67
2023/04/17 02:37:50;;;;;;;1.00;0.70;;;21.80;47.40;;;;;;5041257;28;20575;-67
2023/04/17 02:40:16;;;;;;;0.60;0.60;;;21.90;47.50;;;;;;5039477;28;20108;-67
2023/04/17 02:42:42;;;;;;;0.93;0.60;;;21.80;47.50;;;;;;5040741;28;20034;-68
2023/04/17 02:45:09;;;;;;;0.98;0.70;;;21.80;47.50;;;;;;5041086;28;20025;-67
2023/04/17 02:47:35;;;;;;;0.50;0.50;;;21.80;47.50;;;;;;5041163;28;20092;-67
2023/04/17 02:50:01;;;;;;;0.50;0.50;;;21.80;47.50;;;;;;5039610;28;20075;-67
2023/04/17 02:52:28;;;;;;;0.73;0.60;;;21.80;47.50;;;;;;5038862;28;20034;-67
2023/04/17 02:54:55;;;;;;;0.63;0.40;;;21.80;47.50;;;;;;5039231;28;20036;-66
2023/04/17 02:57:21;;;;;;;0.70;0.50;;;21.80;47.50;;;;;;5042248;28;20021;-67
2023/04/17 02:59:47;;;;;;;0.60;0.60;;;21.80;47.50;;;;;;5041773;28;20038;-68
2023/04/17 03:02:13;;;;;;;0.47;0.40;;;21.80;47.50;;;;;;5039678;28;20037;-67
2023/04/17 03:04:39;;;;;;;0.60;0.60;;;21.80;47.50;;;;;;5041287;28;20033;-67
2023/04/17 03:07:05;;;;;;;0.88;0.65;;;21.80;47.50;;;;;;5041567;28;20039;-67
2023/04/17 03:09:32;;;;;;;0.47;0.47;;;21.80;47.50;;;;;;5039284;28;20018;-65
2023/04/17 03:11:58;;;;;;;0.63;0.50;;;21.70;47.40;;;;;;5040935;28;20037;-67
2023/04/17 03:14:24;;;;;;;0.73;0.60;;;21.80;47.50;;;;;;5046360;28;20560;-67
2023/04/17 03:16:50;;;;;;;0.40;0.40;;;21.80;47.50;;;;;;5040735;28;20079;-67
2023/04/17 03:19:15;;;;;;;0.90;0.60;;;21.70;47.40;;;;;;5039846;28;20079;-67
2023/04/17 03:21:41;;;;;;;0.75;0.57;;;21.70;47.40;;;;;;5041191;28;20480;-67
2023/04/17 03:24:06;;;;;;;0.75;0.60;;;21.70;47.50;;;;;;5040831;28;20124;-67
2023/04/17 03:26:32;;;;;;;0.50;0.50;;;21.70;47.50;;;;;;5043122;28;20036;-66
2023/04/17 03:28:58;;;;;;;0.40;0.40;;;21.70;47.50;;;;;;5040821;28;20028;-67
2023/04/17 03:31:24;;;;;;;0.60;0.52;;;21.70;47.60;;;;;;5038806;28;20457;-66
2023/04/17 03:33:50;;;;;;;0.70;0.60;;;21.70;47.50;;;;;;5041253;28;20049;-67
2023/04/17 03:36:16;;;;;;;0.80;0.50;;;21.70;47.60;;;;;;5039905;28;20064;-67
2023/04/17 03:38:42;;;;;;;0.63;0.60;;;21.70;47.50;;;;;;5039450;28;20032;-67
2023/04/17 03:41:09;;;;;;;0.75;0.60;;;21.70;47.60;;;;;;5038646;28;20035;-67
2023/04/17 03:43:34;;;;;;;0.80;0.60;;;21.70;47.60;;;;;;5038809;28;20477;-67
2023/04/17 03:46:00;;;;;;;0.50;0.50;;;21.70;47.60;;;;;;5037842;28;20025;-67
2023/04/17 03:48:26;;;;;;;1.13;0.60;;;21.70;47.60;;;;;;5040571;28;20907;-67
2023/04/17 03:50:52;;;;;;;0.65;0.50;;;21.70;47.60;;;;;;5040149;28;20036;-66
2023/04/17 03:53:18;;;;;;;1.00;0.50;;;21.70;47.60;;;;;;5053160;28;20026;-67
2023/04/17 03:55:43;;;;;;;0.50;0.50;;;21.70;47.60;;;;;;5036609;28;20017;-66
2023/04/17 03:58:09;;;;;;;2.80;0.70;;;21.60;48.20;;;;;;5039936;28;20621;-67
2023/04/17 04:00:36;;;;;;;0.95;0.50;;;21.70;47.70;;;;;;5039195;28;20032;-66
2023/04/17 04:03:02;;;;;;;0.70;0.70;;;21.70;47.70;;;;;;5040325;28;20021;-67
2023/04/17 04:05:28;;;;;;;0.90;0.70;;;21.60;47.60;;;;;;5039701;28;20055;-67
2023/04/17 04:07:54;;;;;;;0.90;0.55;;;21.70;47.70;;;;;;5039938;28;20081;-67
2023/04/17 04:10:20;;;;;;;0.60;0.50;;;21.60;47.60;;;;;;5038354;28;20435;-67
2023/04/17 04:12:46;;;;;;;0.45;0.45;;;21.60;47.60;;;;;;5040213;28;20104;-67
2023/04/17 04:15:12;;;;;;;0.60;0.60;;;21.60;47.70;;;;;;5045466;28;20024;-66
2023/04/17 04:17:37;;;;;;;0.35;0.35;;;21.60;47.60;;;;;;5040731;28;20032;-65
2023/04/17 04:20:05;;;;;;;0.55;0.55;;;21.60;47.70;;;;;;5039197;28;20384;-67
2023/04/17 04:22:33;;;;;;;0.80;0.52;;;21.60;47.60;;;;;;5042335;28;20076;-67
2023/04/17 04:24:59;;;;;;;0.60;0.60;;;21.60;47.70;;;;;;5037447;28;20029;-65
2023/04/17 04:27:26;;;;;;;0.50;0.50;;;21.60;47.70;;;;;;5036938;28;20533;-66
2023/04/17 04:29:52;;;;;;;0.60;0.60;;;21.60;47.60;;;;;;5037961;28;20457;-66
2023/04/17 04:32:17;;;;;;;0.60;0.60;;;21.60;47.70;;;;;;5039734;28;20029;-65
2023/04/17 04:34:43;;;;;;;0.90;0.60;;;21.60;47.70;;;;;;5038347;28;20521;-66
2023/04/17 04:37:14;;;;;;;1.20;0.70;;;21.60;47.60;;;;;;5032971;28;20049;-66
2023/04/17 04:39:40;;;;;;;0.52;0.50;;;21.60;47.70;;;;;;5039734;28;20029;-66
2023/04/17 04:42:08;;;;;;;0.93;0.68;;;21.60;47.60;;;;;;5037367;28;20021;-65
2023/04/17 04:44:35;;;;;;;0.60;0.60;;;21.60;47.60;;;;;;5045894;28;20037;-65
2023/04/17 04:47:00;;;;;;;0.50;0.50;;;21.60;47.70;;;;;;5039391;28;20060;-65
2023/04/17 04:49:26;;;;;;;0.80;0.60;;;21.60;47.70;;;;;;5038116;28;20054;-64
2023/04/17 04:51:52;;;;;;;1.15;0.60;;;21.50;47.70;;;;;;5039696;28;20143;-65
2023/04/17 04:54:17;;;;;;;1.27;0.70;;;21.60;47.70;;;;;;5041138;28;20043;-65
2023/04/17 04:56:43;;;;;;;1.02;0.60;;;21.60;47.80;;;;;;5035906;28;20033;-65
2023/04/17 04:59:10;;;;;;;0.93;0.60;;;21.60;47.80;;;;;;5039016;28;20106;-65
2023/04/17 05:01:35;;;;;;;0.93;0.60;;;21.50;47.70;;;;;;5042955;28;20353;-65
2023/04/17 05:04:01;;;;;;;0.73;0.60;;;21.50;47.80;;;;;;5041208;28;20029;-65
2023/04/17 05:06:27;;;;;;;0.57;0.50;;;21.60;47.80;;;;;;5042560;28;20038;-65
2023/04/17 05:08:52;;;;;;;1.02;0.70;;;21.60;47.80;;;;;;5043341;28;20029;-65
2023/04/17 05:11:18;;;;;;;0.63;0.52;;;21.60;47.70;;;;;;5039905;28;20087;-65
2023/04/17 05:13:44;;;;;;;0.50;0.50;;;21.50;47.60;;;;;;5041632;28;20029;-65
2023/04/17 05:16:09;;;;;;;0.80;0.50;;;21.50;47.60;;;;;;5049722;28;20036;-65
2023/04/17 05:18:35;;;;;;;0.52;0.52;;;21.50;47.60;;;;;;5043086;28;20032;-65
2023/04/17 05:21:01;;;;;;;0.77;0.60;;;21.50;47.60;;;;;;5041674;28;20365;-65
2023/04/17 05:23:27;;;;;;;0.60;0.60;;;21.50;48.10;;;;;;5043150;28;20079;-65
2023/04/17 05:25:52;;;;;;;0.65;0.60;;;21.50;47.70;;;;;;5038078;28;20057;-65
2023/04/17 05:28:18;;;;;;;0.68;0.60;;;21.50;47.70;;;;;;5039900;28;20083;-65
2023/04/17 05:30:44;;;;;;;0.80;0.60;;;21.50;47.70;;;;;;5042282;28;20032;-65
2023/04/17 05:33:10;;;;;;;0.60;0.60;;;21.50;47.80;;;;;;5041898;28;20461;-65
2023/04/17 05:35:35;;;;;;;0.65;0.50;;;21.50;47.80;;;;;;5042467;28;20033;-64
2023/04/17 05:38:01;;;;;;;0.60;0.60;;;21.50;47.80;;;;;;5041294;28;20350;-65
2023/04/17 05:40:26;;;;;;;0.60;0.55;;;21.50;47.80;;;;;;5041116;28;20036;-65
2023/04/17 05:42:52;;;;;;;0.60;0.60;;;21.50;48.40;;;;;;5040991;28;20125;-65
2023/04/17 05:45:18;;;;;;;0.93;0.60;;;21.50;47.80;;;;;;5039351;28;20052;-65
2023/04/17 05:47:44;;;;;;;0.95;0.65;;;21.50;48.00;;;;;;5043892;28;20028;-64
2023/04/17 05:50:10;;;;;;;1.02;0.70;;;21.50;48.00;;;;;;5038509;28;20134;-64
2023/04/17 05:52:35;;;;;;;0.90;0.52;;;21.50;48.70;;;;;;5039144;28;20092;-64
2023/04/17 05:55:02;;;;;;;0.95;0.50;;;21.50;48.20;;;;;;5039603;28;20025;-64
2023/04/17 05:57:28;;;;;;;0.57;0.55;;;21.50;48.20;;;;;;5038412;28;20053;-64
2023/04/17 05:59:54;;;;;;;0.82;0.60;;;21.50;48.20;;;;;;5041196;28;20063;-64
2023/04/17 06:02:19;;;;;;;0.95;0.65;;;21.50;48.30;;;;;;5041968;28;20059;-63
2023/04/17 06:04:45;;;;;;;1.00;0.60;;;21.60;48.30;;;;;;5044266;28;20025;-64
2023/04/17 06:07:11;;;;;;;1.85;0.60;;;21.60;48.40;;;;;;5040611;28;20040;-64
2023/04/17 06:09:37;;;;;;;1.17;0.60;;;21.60;48.50;;;;;;5038908;28;20029;-63
2023/04/17 06:12:03;;;;;;;2.35;0.80;;;21.60;48.50;;;;;;5040039;28;20037;-64
2023/04/17 06:14:29;;;;;;;1.30;0.70;;;21.60;48.50;;;;;;5040121;28;20083;-64
2023/04/17 06:16:55;;;;;;;0.52;0.50;;;21.70;48.60;;;;;;5038241;28;20021;-63
2023/04/17 06:19:22;;;;;;;0.68;0.60;;;21.70;48.60;;;;;;5037334;28;20099;-64
2023/04/17 06:21:48;;;;;;;1.02;0.60;;;21.70;48.60;;;;;;5041242;28;20025;-64
2023/04/17 06:24:13;;;;;;;0.80;0.60;;;21.70;48.60;;;;;;5038406;28;20472;-63
2023/04/17 06:26:39;;;;;;;0.73;0.60;;;21.70;48.50;;;;;;5046343;28;20044;-64
2023/04/17 06:29:04;;;;;;;1.15;0.70;;;21.70;48.60;;;;;;5040795;28;20052;-64
2023/04/17 06:31:30;;;;;;;1.05;0.73;;;21.80;48.60;;;;;;5041894;28;20520;-64
2023/04/17 06:33:56;;;;;;;0.98;0.70;;;21.80;48.40;;;;;;5039369;28;20029;-64
2023/04/17 06:36:21;;;;;;;2.38;0.80;;;21.80;48.50;;;;;;5041553;28;20552;-64
2023/04/17 06:38:47;;;;;;;1.65;0.90;;;21.80;48.40;;;;;;5040871;28;20323;-64
2023/04/17 06:41:13;;;;;;;1.08;0.70;;;21.90;48.40;;;;;;5040402;28;20446;-64
2023/04/17 06:43:39;;;;;;;0.90;0.70;;;21.90;48.40;;;;;;5042318;28;20025;-64
2023/04/17 06:46:04;;;;;;;1.08;0.70;;;21.90;48.40;;;;;;5041732;28;20079;-61
2023/04/17 06:48:30;;;;;;;1.23;0.80;;;21.90;48.40;;;;;;5040234;28;20029;-64
2023/04/17 06:50:56;;;;;;;0.98;0.70;;;21.90;48.30;;;;;;5041059;28;20124;-63
2023/04/17 06:53:21;;;;;;;1.45;0.75;;;22.00;48.30;;;;;;5039205;28;20045;-64
2023/04/17 06:55:47;;;;;;;1.13;0.85;;;22.00;48.20;;;;;;5040752;28;20033;-64
2023/04/17 06:58:13;;;;;;;0.77;0.70;;;22.00;48.30;;;;;;5038709;28;20029;-64
2023/04/17 07:00:38;;;;;;;2.15;0.88;;;22.00;48.30;;;;;;5040159;28;20136;-63
2023/04/17 07:03:04;;;;;;;1.40;0.70;;;22.00;48.50;;;;;;5041349;28;20528;-63
2023/04/17 07:05:30;;;;;;;1.17;0.70;;;22.00;48.30;;;;;;5040708;28;20473;-63
2023/04/17 07:07:56;;;;;;;1.45;0.70;;;22.00;48.30;;;;;;5040648;28;20044;-63
2023/04/17 07:10:21;;;;;;;1.90;0.70;;;22.10;48.30;;;;;;5040960;28;20066;-63
2023/04/17 07:12:47;;;;;;;1.00;0.80;;;22.10;48.30;;;;;;5039428;28;20037;-63
2023/04/17 07:15:13;;;;;;;0.98;0.70;;;22.10;48.20;;;;;;5039400;28;20060;-63
2023/04/17 07:17:38;;;;;;;1.27;0.65;;;22.10;48.30;;;;;;5038874;28;20025;-63
2023/04/17 07:20:06;;;;;;;1.60;0.80;;;22.20;48.40;;;;;;5039303;28;20057;-63
2023/04/17 07:22:33;;;;;;;1.10;0.80;;;22.20;48.20;;;;;;5039213;28;20174;-63
2023/04/17 07:24:58;;;;;;;1.05;0.75;;;22.20;48.30;;;;;;5037407;28;20100;-64
2023/04/17 07:27:25;;;;;;;1.70;0.80;;;22.20;48.30;;;;;;5038686;28;20138;-63
2023/04/17 07:29:54;;;;;;;1.70;0.80;;;22.20;48.50;;;;;;5038599;28;20033;-63
2023/04/17 07:32:20;;;;;;;2.00;0.82;;;22.20;48.30;;;;;;5038109;28;20579;-64
2023/04/17 07:34:47;;;;;;;1.52;0.88;;;22.30;48.40;;;;;;5039196;28;20104;-60
2023/04/17 07:37:14;;;;;;;2.42;0.80;;;22.30;48.60;;;;;;5038953;28;20025;-63
2023/04/17 07:39:40;;;;;;;1.45;0.70;;;22.30;48.40;;;;;;5040054;28;20059;-63
2023/04/17 07:42:07;;;;;;;1.88;0.80;;;22.30;48.20;;;;;;5036260;28;20064;-63
2023/04/17 07:44:33;;;;;;;1.27;0.80;;;22.30;48.20;;;;;;5040185;28;20048;-64
2023/04/17 07:47:00;;;;;;;2.00;0.90;;;22.30;48.20;;;;;;5040178;28;20469;-64
2023/04/17 07:49:25;;;;;;;1.75;0.77;;;22.40;48.20;;;;;;5040448;28;20025;-64
2023/04/17 07:51:51;;;;;;;1.25;0.70;;;22.40;48.20;;;;;;5038234;28;20035;-64
2023/04/17 07:54:17;;;;;;;1.02;0.70;;;22.40;48.10;;;;;;5039641;28;20036;-64
2023/04/17 07:56:45;;;;;;;0.70;0.70;;;22.40;47.90;;;;;;5037178;28;20029;-64
2023/04/17 07:59:11;;;;;;;0.98;0.77;;;22.50;47.90;;;;;;5040115;28;20023;-64
2023/04/17 08:01:37;;;;;;;0.80;0.70;;;22.50;47.90;;;;;;5036901;28;20029;-64
2023/04/17 08:04:03;;;;;;;1.70;0.85;;;22.50;47.90;;;;;;5037347;28;20029;-64
2023/04/17 08:06:29;;;;;;;1.60;0.80;;;22.50;47.90;;;;;;5037719;28;20083;-63
2023/04/17 08:08:55;;;;;;;1.10;0.90;;;22.50;47.90;;;;;;5039036;28;20029;-64
2023/04/17 08:11:21;;;;;;;1.00;0.68;;;22.50;47.80;;;;;;5039094;28;20028;-64
2023/04/17 08:13:46;;;;;;;3.05;0.90;;;22.50;47.80;;;;;;5036353;28;20034;-63
2023/04/17 08:16:12;;;;;;;1.27;0.77;;;22.50;47.80;;;;;;5038458;28;20030;-64
2023/04/17 08:18:40;;;;;;;1.20;0.80;;;22.50;47.70;;;;;;5039413;28;20104;-63
2023/04/17 08:21:07;;;;;;;1.15;0.75;;;22.50;47.80;;;;;;5039193;28;20109;-64
2023/04/17 08:23:33;;;;;;;0.68;0.63;;;22.60;47.90;;;;;;5038372;28;20059;-63
2023/04/17 08:25:59;;;;;;;2.33;0.80;;;22.60;47.90;;;;;;5038574;28;20036;-64
2023/04/17 08:28:24;;;;;;;1.58;0.73;;;22.60;48.40;;;;;;5036597;28;20036;-63
2023/04/17 08:30:50;;;;;;;1.60;0.85;;;22.60;48.30;;;;;;5038453;28;20083;-63
2023/04/17 08:33:17;;;;;;;1.00;0.70;;;22.60;47.90;;;;;;5036546;28;20465;-63
2023/04/17 08:35:43;;;;;;;1.63;0.80;;;22.70;48.00;;;;;;5043460;28;20124;-63
2023/04/17 08:38:12;;;;;;;1.10;0.80;;;22.70;48.00;;;;;;5043523;28;20119;-63
2023/04/17 08:40:41;;;;;;;0.73;0.60;;;22.70;48.00;;;;;;5045102;28;20037;-64
2023/04/17 08:43:18;;;;;;;2.05;0.75;;;22.70;48.00;;;;;;5043830;28;20091;-63
2023/04/17 08:45:55;;;;;;;1.30;0.80;;;22.70;48.20;;;;;;5041918;28;20401;-65
2023/04/17 08:48:22;;;;;;;1.13;0.70;;;22.70;48.20;;;;;;5043358;28;20238;-66
2023/04/17 08:50:50;;;;;;;1.27;0.75;;;22.70;48.20;;;;;;5043063;28;20033;-64
2023/04/17 08:53:17;;;;;;;1.38;0.73;;;22.80;48.20;;;;;;5041122;28;20026;-65
2023/04/17 08:55:44;;;;;;;1.75;0.82;;;22.80;48.00;;;;;;5042852;28;20528;-65
2023/04/17 08:58:11;;;;;;;1.80;0.70;;;22.80;47.90;;;;;;5040492;28;20162;-65
2023/04/17 09:00:38;;;;;;;2.33;0.80;;;22.80;47.90;;;;;;5042902;28;20034;-65
2023/04/17 09:03:06;;;;;;;1.27;0.70;;;22.80;47.90;;;;;;5044513;28;20061;-65
2023/04/17 09:05:35;;;;;;;1.67;0.75;;;22.80;48.30;;;;;;5046391;28;20033;-65
2023/04/17 09:08:10;;;;;;;1.17;0.60;;;22.80;47.70;;;;;;5039491;28;20031;-65
2023/04/17 09:10:44;;;;;;;2.20;0.88;;;22.80;47.70;;;;;;5042089;28;20021;-65
2023/04/17 09:13:13;;;;;;;1.75;0.70;;;22.90;47.80;;;;;;5040835;28;20358;-65
2023/04/17 09:15:39;;;;;;;1.13;0.77;;;22.90;47.80;;;;;;5041584;28;20481;-66
2023/04/17 09:18:19;;;;;;;2.28;0.80;;;22.90;47.70;;;;;;5041888;28;20021;-66
2023/04/17 09:20:50;;;;;;;1.17;0.80;;;22.90;48.40;;;;;;5042997;28;20469;-66
2023/04/17 09:23:16;;;;;;;1.02;0.80;;;22.90;47.90;;;;;;5044662;28;20124;-66
2023/04/17 09:25:42;;;;;;;1.00;0.70;;;22.90;47.70;;;;;;5039794;28;20377;-65
2023/04/17 09:28:11;;;;;;;1.00;0.70;;;22.90;47.60;;;;;;5042139;28;20060;-66
2023/04/17 09:30:38;;;;;;;;;;;22.90;47.50;;;;;;5042093;28;20060;-66
2023/04/17 09:33:05;;;;;;;1.15;0.70;;;22.90;47.40;;;;;;5041298;28;19909;-66
2023/04/17 09:35:31;;;;;;;1.75;0.70;;;22.90;47.40;;;;;;5042829;28;20067;-66
2023/04/17 09:37:58;;;;;;;1.73;0.80;;;22.90;47.40;;;;;;5039934;28;20348;-66
2023/04/17 09:40:24;;;;;;;1.67;0.95;;;22.90;47.40;;;;;;5041514;28;20024;-66
2023/04/17 09:42:59;;;;;;;1.63;0.80;;;22.90;47.40;;;;;;5041112;28;20548;-66
2023/04/17 09:45:35;;;;;;;1.23;0.77;;;22.90;47.80;;;;;;5048076;28;20033;-67
2023/04/17 09:48:11;;;;;;;0.90;0.70;;;22.90;47.30;;;;;;5040689;28;20188;-66
2023/04/17 09:50:37;;;;;;;1.80;0.75;;;22.90;47.30;;;;;;5042103;28;20461;-66
2023/04/17 09:53:04;;;;;;;1.75;0.90;;;22.90;47.20;;;;;;5042936;28;20025;-66
2023/04/17 09:55:30;;;;;;;1.50;0.80;;;22.90;47.20;;;;;;5042676;28;20537;-67
2023/04/17 09:57:57;;;;;;;1.42;0.80;;;22.90;47.20;;;;;;5039499;28;20014;-66
2023/04/17 10:00:28;;;;;;;1.90;0.90;;;22.90;47.20;;;;;;5039039;28;20040;-66
2023/04/17 10:02:55;;;;;;;1.52;0.82;;;22.90;47.10;;;;;;5039956;28;20094;-66
2023/04/17 10:05:27;;;;;;;1.10;0.90;;;22.90;47.10;;;;;;5042228;28;20017;-66
2023/04/17 10:07:53;;;;;;;1.50;0.98;;;22.90;47.00;;;;;;5038454;28;20037;-66
2023/04/17 10:10:24;;;;;;;1.75;0.90;;;22.90;47.00;;;;;;5037723;28;20080;-67
2023/04/17 10:12:53;;;;;;;1.58;0.90;;;22.90;47.00;;;;;;5040467;28;20120;-66
2023/04/17 10:15:20;;;;;;;1.00;0.80;;;22.90;47.00;;;;;;5042420;28;20056;-66
2023/04/17 10:17:48;;;;;;;1.88;0.80;;;22.90;47.00;;;;;;5039786;28;20497;-66
2023/04/17 10:20:14;;;;;;;1.23;0.80;;;22.90;47.00;;;;;;5040425;28;20099;-67
2023/04/17 10:22:40;;;;;;;1.20;0.90;;;22.90;47.00;;;;;;5037445;28;20029;-66
2023/04/17 10:25:11;;;;;;;1.63;1.00;;;22.90;46.90;;;;;;5042561;28;20041;-66
2023/04/17 10:27:40;;;;;;;2.22;0.90;;;22.90;46.90;;;;;;5039462;28;20501;-68
2023/04/17 10:30:11;;;;;;;1.25;0.95;;;22.90;46.90;;;;;;5039796;28;20033;-66
2023/04/17 10:32:43;;;;;;;1.65;0.88;;;22.90;46.80;;;;;;5041438;28;20033;-66
2023/04/17 10:35:15;;;;;;;1.35;0.70;;;22.90;46.80;;;;;;5042253;28;20036;-66
2023/04/17 10:37:46;;;;;;;1.83;0.93;;;22.90;46.90;;;;;;5040194;28;20025;-67
2023/04/17 10:40:19;;;;;;;1.30;0.80;;;22.90;47.00;;;;;;5041989;28;20051;-66
2023/04/17 10:43:10;;;;;;;1.73;0.90;;;22.80;46.90;;;;;;5037942;28;20024;-66
2023/04/17 10:46:05;;;;;;;2.08;0.90;;;22.90;47.00;;;;;;5040753;28;20061;-66
2023/04/17 10:48:43;;;;;;;1.25;0.90;;;22.90;47.10;;;;;;5040596;28;20485;-66
2023/04/17 10:51:27;;;;;;;1.48;0.90;;;22.90;47.10;;;;;;5041004;28;20044;-66
2023/04/17 10:53:53;;;;;;;1.95;1.00;;;22.90;47.20;;;;;;5041453;28;20030;-66
2023/04/17 10:56:25;;;;;;;2.13;0.90;;;22.90;47.20;;;;;;5038995;28;20033;-66
2023/04/17 10:58:59;;;;;;;1.73;0.90;;;22.80;47.20;;;;;;5038708;28;20440;-65
2023/04/17 11:01:30;;;;;;;1.55;0.80;;;22.90;47.30;;;;;;5040933;28;20090;-65
2023/04/17 11:04:00;;;;;;;1.40;0.85;;;22.80;47.30;;;;;;5041721;28;20091;-65
2023/04/17 11:06:28;;;;;;;1.98;0.93;;;22.80;47.30;;;;;;5039997;28;20029;-65
2023/04/17 11:08:58;;;;;;;1.92;0.85;;;22.90;47.40;;;;;;5039437;28;20071;-65
2023/04/17 11:11:24;;;;;;;2.65;1.30;;;22.80;47.40;;;;;;5039811;28;20078;-65
2023/04/17 11:13:50;;;;;;;2.45;1.00;;;22.80;47.50;;;;;;5038852;28;20108;-65
2023/04/17 11:16:16;;;;;;;1.23;0.70;;;22.80;47.60;;;;;;5040605;28;20082;-66
2023/04/17 11:18:43;;;;;;;1.88;0.82;;;22.80;47.70;;;;;;5041212;28;20033;-66
2023/04/17 11:21:13;;;;;;;1.35;0.80;;;22.80;47.70;;;;;;5040336;28;20037;-65
2023/04/17 11:23:39;;;;;;;1.73;0.88;;;22.80;47.70;;;;;;5040194;28;20477;-65
2023/04/17 11:26:08;;;;;;;1.85;1.00;;;22.80;47.80;;;;;;5041358;28;20032;-65
2023/04/17 11:28:35;;;;;;;1.77;1.05;;;22.80;47.80;;;;;;5036799;28;20174;-65
2023/04/17 11:31:01;;;;;;;1.35;0.80;;;22.80;47.80;;;;;;5040549;28;20025;-65
2023/04/17 11:33:27;;;;;;;1.10;0.82;;;22.80;47.80;;;;;;5041229;28;20025;-64
2023/04/17 11:35:53;;;;;;;1.67;0.90;;;22.80;47.80;;;;;;5039115;28;20108;-65
2023/04/17 11:38:20;;;;;;;2.15;1.08;;;22.80;47.80;;;;;;5039701;28;20032;-65
2023/04/17 11:40:46;;;;;;;1.77;0.93;;;22.80;47.80;;;;;;5039263;28;20124;-64
2023/04/17 11:43:12;;;;;;;1.50;0.90;;;22.80;47.80;;;;;;5040060;28;20124;-65
2023/04/17 11:45:40;;;;;;;2.00;1.20;;;22.80;47.80;;;;;;5040394;28;20028;-64
2023/04/17 11:48:09;;;;;;;2.03;1.10;;;22.80;47.80;;;;;;5038408;28;20032;-65
2023/04/17 11:50:35;;;;;;;1.52;1.00;;;22.70;47.80;;;;;;5039331;28;20033;-64
2023/04/17 11:53:02;;;;;;;3.35;1.08;;;22.80;47.90;;;;;;5039876;28;20063;-65
2023/04/17 11:55:31;;;;;;;1.40;1.00;;;22.80;47.90;;;;;;5040111;28;20049;-64
2023/04/17 11:57:58;;;;;;;2.03;1.08;;;22.70;48.40;;;;;;5038925;28;20469;-65
2023/04/17 12:00:28;;;;;;;2.00;1.23;;;22.70;47.80;;;;;;5037639;28;20025;-66
2023/04/17 12:03:02;;;;;;;1.40;0.95;;;22.70;47.80;;;;;;5040127;28;20053;-64
2023/04/17 12:05:29;;;;;;;1.67;0.88;;;22.70;48.40;;;;;;5040472;28;20378;-65
2023/04/17 12:07:59;;;;;;;1.80;1.08;;;22.80;47.70;;;;;;5038884;28;20029;-64
2023/04/17 12:10:35;;;;;;;1.00;0.85;;;22.80;47.70;;;;;;5034719;28;20028;-65
2023/04/17 12:13:01;;;;;;;1.48;0.90;;;22.80;47.70;;;;;;5040031;28;20023;-66
2023/04/17 12:15:26;;;;;;;2.03;1.00;;;22.80;47.60;;;;;;5035922;28;20070;-66
2023/04/17 12:17:52;;;;;;;1.67;1.00;;;22.80;47.60;;;;;;5035820;28;20033;-66
2023/04/17 12:20:18;;;;;;;1.50;1.00;;;22.80;47.60;;;;;;5038516;28;20430;-66
2023/04/17 12:22:43;;;;;;;1.90;0.90;;;22.80;47.60;;;;;;5038590;28;20078;-65
2023/04/17 12:25:09;;;;;;;1.80;1.00;;;22.80;47.50;;;;;;5039974;28;20377;-66
2023/04/17 12:27:35;;;;;;;2.05;1.00;;;22.80;47.60;;;;;;5038511;28;20440;-66
2023/04/17 12:30:02;;;;;;;2.13;1.00;;;22.80;47.60;;;;;;5036655;28;20501;-65
2023/04/17 12:32:28;;;;;;;1.45;0.90;;;22.80;47.70;;;;;;5038484;28;20033;-66
2023/04/17 12:34:54;;;;;;;1.75;1.00;;;22.80;47.70;;;;;;5039820;28;20082;-65
2023/04/17 12:37:20;;;;;;;1.98;0.90;;;22.80;47.80;;;;;;5037343;28;20362;-65
2023/04/17 12:39:46;;;;;;;2.05;1.10;;;22.70;47.70;;;;;;5037468;28;20091;-63
2023/04/17 12:42:11;;;;;;;2.55;1.00;;;22.70;47.70;;;;;;5037887;28;20075;-64
2023/04/17 12:44:37;;;;;;;1.48;0.90;;;22.80;47.70;;;;;;5035786;28;20465;-64
2023/04/17 12:47:03;;;;;;;1.65;1.00;;;22.80;47.70;;;;;;5035722;28;20117;-64